SBKP/CPQ METAR and TAF weather

Enter ICAO airport designator
Station Type Date Time Source
SBKP METAR 2019/04/25 12:00 UTC NOAA

SBKP 251200Z 12004KT 060V150 6000 NSC 24/19 Q1021


Station Type Date Time Source
SBKP Decoded METAR 2019/04/25 12:00 UTC NOAA

Campinas Aeroporto , Brazil (SBKP) 23-00S 047-08W 661M
Apr 25, 2019 - 08:00 AM EDT / 2019.04.25 1200 UTC
Wind: from the ESE (120 degrees) at 5 MPH (4 KT) (direction variable):0
Visibility: 3 mile(s):0
Temperature: 75 F (24 C)
Dew Point: 66 F (19 C)
Relative Humidity: 73%
Pressure (altimeter): 30.15 in. Hg (1021 hPa)
ob: SBKP 251200Z 12004KT 060V150 6000 NSC 24/19 Q1021
cycle: 12

Station Type Date Time Source
SBKP TAF 2019/04/25 12:45 UTC NOAA

TAF TAF SBKP 250900Z 2512/2612 09005KT CAVOK TX29/2517Z TN19/2608Z
BECMG 2513/2515 35005KT 9999 SCT035 PROB40 2517/2521 TSRA BKN035 FEW040CB
BECMG 2521/2523 14010KT CAVOK
BECMG 2608/2610 06005KT
RMK PGH

Example: see airport list